createdAt,value
2023-02-04T00:00:06.944Z,94099.19
2023-02-04T00:03:01.003Z,94097.50
2023-02-04T00:05:54.913Z,94100.03
2023-02-04T00:08:41.921Z,94103.38
2023-02-04T00:11:21.910Z,94096.66
2023-02-04T00:14:15.911Z,94090.78
2023-02-04T00:17:09.943Z,94105.09
2023-02-04T00:20:03.907Z,94089.94
2023-02-04T00:22:50.924Z,94093.28
2023-02-04T00:25:24.031Z,94102.53
2023-02-04T00:28:10.994Z,94102.53
2023-02-04T00:30:44.048Z,94099.16
2023-02-04T00:33:30.910Z,94095.81
2023-02-04T00:36:04.037Z,94097.53
2023-02-04T00:38:50.924Z,94093.28
2023-02-04T00:41:24.040Z,94090.78
2023-02-04T00:44:10.951Z,94087.44
2023-02-04T00:46:44.006Z,94076.50
2023-02-04T00:49:30.947Z,94073.13
2023-02-04T00:52:04.072Z,94080.69
2023-02-04T00:54:50.952Z,94084.88
2023-02-04T00:57:25.042Z,94079.00
2023-02-04T01:00:12.935Z,94089.94
2023-02-04T01:02:52.973Z,94089.13
2023-02-04T01:05:46.949Z,94088.25
2023-02-04T01:08:40.938Z,94078.16
2023-02-04T01:11:27.938Z,94079.00
2023-02-04T01:14:01.054Z,94073.97
2023-02-04T01:16:48.041Z,94065.59
2023-02-04T01:19:21.296Z,94063.06
2023-02-04T01:22:07.951Z,94076.50
2023-02-04T01:24:47.937Z,94068.09
2023-02-04T01:27:34.961Z,94063.91
2023-02-04T01:30:18.942Z,94058.84
2023-02-04T01:33:05.967Z,94052.97
2023-02-04T01:35:45.967Z,94057.16
2023-02-04T01:38:32.937Z,94051.28
2023-02-04T01:41:12.964Z,94050.47
2023-02-04T01:44:00.971Z,94038.69
2023-02-04T01:46:43.988Z,94042.03
2023-02-04T01:49:37.951Z,94037.84
2023-02-04T01:52:24.977Z,94037.00
2023-02-04T01:55:00.074Z,94043.72
2023-02-04T01:57:46.958Z,94040.38
2023-02-04T02:00:35.973Z,94039.50
2023-02-04T02:03:22.955Z,94035.31
2023-02-04T02:06:05.977Z,94031.13
2023-02-04T02:08:52.963Z,94027.78
2023-02-04T02:11:32.995Z,94029.44
2023-02-04T02:14:26.972Z,94021.03
2023-02-04T02:17:20.955Z,94024.41
2023-02-04T02:20:14.982Z,94016.84
2023-02-04T02:23:24.969Z,94018.53
2023-02-04T02:25:58.158Z,94012.66
2023-02-04T02:28:44.979Z,94019.38
2023-02-04T02:31:18.227Z,94016.84
2023-02-04T02:34:04.985Z,94013.50
2023-02-04T02:36:38.069Z,94010.13
2023-02-04T02:39:25.989Z,94010.97
2023-02-04T02:41:59.074Z,94011.81
2023-02-04T02:44:45.996Z,94011.81
2023-02-04T02:47:29.995Z,94008.44
2023-02-04T02:50:22.971Z,94018.53
2023-02-04T02:52:56.086Z,94010.97
2023-02-04T02:55:42.985Z,94014.31
2023-02-04T02:58:39.975Z,94019.34
2023-02-04T03:01:34.015Z,94015.19
2023-02-04T03:04:21.991Z,94015.16
2023-02-04T03:06:56.269Z,94016.84
2023-02-04T03:09:42.963Z,94015.16
2023-02-04T03:12:16.089Z,94020.22
2023-02-04T03:15:02.984Z,94019.34
2023-02-04T03:17:36.091Z,94010.97
2023-02-04T03:20:22.983Z,94011.78
2023-02-04T03:22:56.141Z,94011.78
2023-02-04T03:25:43.004Z,94009.28
2023-02-04T03:28:16.130Z,94005.91
2023-02-04T03:31:03.108Z,94015.16
2023-02-04T03:33:42.997Z,94019.34
2023-02-04T03:36:30.008Z,94015.19
2023-02-04T03:39:10.013Z,94012.66
2023-02-04T03:42:04.002Z,94018.53
2023-02-04T03:44:58.010Z,94021.03
2023-02-04T03:47:45.021Z,94026.09
2023-02-04T03:50:18.120Z,94015.19
2023-02-04T03:53:05.012Z,94021.88
2023-02-04T03:55:38.141Z,94018.53
2023-02-04T03:58:24.999Z,94033.63
2023-02-04T04:00:58.111Z,94037.00
2023-02-04T04:03:45.009Z,94050.47
2023-02-04T04:06:18.181Z,94037.00
2023-02-04T04:09:05.024Z,94035.34
2023-02-04T04:11:38.096Z,94031.13
2023-02-04T04:14:25.009Z,94033.66
2023-02-04T04:16:58.100Z,94031.13
2023-02-04T04:19:45.006Z,94037.00
2023-02-04T04:22:19.136Z,94029.44
2023-02-04T04:25:06.012Z,94048.78
2023-02-04T04:27:46.129Z,94053.81
2023-02-04T04:30:40.025Z,94060.53
2023-02-04T04:33:27.027Z,94059.66
2023-02-04T04:36:00.127Z,94069.75
2023-02-04T04:38:47.028Z,94063.84
2023-02-04T04:41:20.112Z,94074.78
2023-02-04T04:44:07.006Z,94070.59
2023-02-04T04:46:41.118Z,94073.13
2023-02-04T04:49:28.047Z,94075.63
2023-02-04T04:52:01.121Z,94077.31
2023-02-04T04:54:48.035Z,94088.22
2023-02-04T04:57:21.118Z,94094.06
2023-02-04T05:00:08.015Z,94101.66
2023-02-04T05:02:41.946Z,94099.97
2023-02-04T05:05:29.030Z,94094.09
2023-02-04T05:08:09.036Z,94094.91
2023-02-04T05:11:03.014Z,94106.69
2023-02-04T05:13:50.046Z,94118.44
2023-02-04T05:16:23.139Z,94126.00
2023-02-04T05:19:10.053Z,94123.47
2023-02-04T05:21:50.042Z,94126.00
2023-02-04T05:24:37.025Z,94129.31
2023-02-04T05:27:17.053Z,94129.31
2023-02-04T05:30:11.032Z,94133.50
2023-02-04T05:33:05.023Z,94155.38
2023-02-04T05:35:52.025Z,94158.72
2023-02-04T05:38:32.031Z,94177.16
2023-02-04T05:41:26.047Z,94181.34
2023-02-04T05:44:13.030Z,94190.59
2023-02-04T05:46:53.099Z,94187.25
2023-02-04T05:49:47.046Z,94197.34
2023-02-04T05:52:34.048Z,94208.19
2023-02-04T05:55:07.137Z,94227.47
2023-02-04T05:57:54.051Z,94242.59
2023-02-04T06:00:27.144Z,94255.16
2023-02-04T06:03:14.097Z,94286.19
2023-02-04T06:05:47.188Z,94302.09
2023-02-04T06:08:34.039Z,94307.84
2023-02-04T06:11:07.131Z,94318.69
2023-02-04T06:13:54.060Z,94331.13
2023-02-04T06:16:27.199Z,94342.75
2023-02-04T06:19:14.083Z,94355.25
2023-02-04T06:21:47.130Z,94345.09
2023-02-04T06:24:37.037Z,94369.28
2023-02-04T06:27:10.167Z,94389.28
2023-02-04T06:29:58.052Z,94410.03
2023-02-04T06:32:31.162Z,94441.78
2023-02-04T06:35:20.069Z,94449.22
2023-02-04T06:37:53.154Z,94459.16
2023-02-04T06:40:47.050Z,94472.53
2023-02-04T06:43:41.056Z,94489.75
2023-02-04T06:46:28.149Z,94490.97
2023-02-04T06:49:08.052Z,94518.59
2023-02-04T06:52:02.076Z,94517.56
2023-02-04T06:54:56.061Z,94546.84
2023-02-04T06:57:43.049Z,94545.97
2023-02-04T07:00:18.175Z,94569.19
2023-02-04T07:03:06.063Z,94586.47
2023-02-04T07:05:42.215Z,94604.75
2023-02-04T07:08:29.058Z,94619.00
2023-02-04T07:11:09.081Z,94629.72
2023-02-04T07:13:56.076Z,94664.84
2023-02-04T07:16:36.077Z,94656.28
2023-02-04T07:19:23.084Z,94685.44
2023-02-04T07:21:57.193Z,94692.72
2023-02-04T07:24:44.099Z,94697.84
2023-02-04T07:27:24.075Z,94726.31
2023-02-04T07:30:18.049Z,94728.66
2023-02-04T07:33:06.069Z,94779.47
2023-02-04T07:35:42.209Z,94766.66
2023-02-04T07:38:29.082Z,94780.03
2023-02-04T07:41:02.159Z,94799.31
2023-02-04T07:43:49.074Z,94801.81
2023-02-04T07:46:29.132Z,94811.72
2023-02-04T07:49:16.071Z,94818.66
2023-02-04T07:51:56.083Z,94834.47
2023-02-04T07:54:43.053Z,94843.72
2023-02-04T07:57:16.191Z,94858.72
2023-02-04T08:00:03.064Z,94870.53
2023-02-04T08:02:43.177Z,94884.66
2023-02-04T08:05:30.074Z,94898.06
2023-02-04T08:08:03.189Z,94904.84
2023-02-04T08:10:50.103Z,94915.41
2023-02-04T08:13:26.189Z,94929.69
2023-02-04T08:16:13.152Z,94937.69
2023-02-04T08:18:53.080Z,94954.88
2023-02-04T08:21:40.064Z,94963.09
2023-02-04T08:24:13.187Z,94972.47
2023-02-04T08:27:00.120Z,94974.94
2023-02-04T08:29:33.171Z,95002.63
2023-02-04T08:32:20.073Z,95010.06
2023-02-04T08:34:53.159Z,95022.34
2023-02-04T08:37:40.076Z,95024.72
2023-02-04T08:40:13.165Z,95047.00
2023-02-04T08:43:07.082Z,95056.88
2023-02-04T08:45:54.077Z,95071.13
2023-02-04T08:48:34.083Z,95085.34
2023-02-04T08:51:28.093Z,95087.84
2023-02-04T08:54:15.088Z,95111.91
2023-02-04T08:56:55.119Z,95121.97
2023-02-04T08:59:49.098Z,95139.31
2023-02-04T09:02:36.176Z,95131.03
2023-02-04T09:05:09.226Z,95135.81
2023-02-04T09:07:56.140Z,95157.22
2023-02-04T09:10:32.481Z,95153.22
2023-02-04T09:13:21.123Z,95182.66
2023-02-04T09:16:01.206Z,95182.69
2023-02-04T09:18:48.152Z,95168.63
2023-02-04T09:21:24.275Z,95204.41
2023-02-04T09:24:11.122Z,95222.09
2023-02-04T09:26:51.143Z,95208.59
2023-02-04T09:29:38.136Z,95227.38
2023-02-04T09:32:14.280Z,95224.13
2023-02-04T09:35:01.154Z,95234.47
2023-02-04T09:37:34.276Z,95227.88
2023-02-04T09:40:24.125Z,95246.16
2023-02-04T09:43:13.157Z,95256.34
2023-02-04T09:46:01.170Z,95248.75
2023-02-04T09:48:34.243Z,95273.56
2023-02-04T09:51:26.139Z,95276.28
2023-02-04T09:54:02.289Z,95267.38
2023-02-04T09:56:49.155Z,95303.31
2023-02-04T09:59:36.118Z,95302.72
2023-02-04T10:02:40.123Z,95305.31
2023-02-04T10:05:34.107Z,95324.19
2023-02-04T10:08:07.228Z,95331.88
2023-02-04T10:10:58.012Z,95333.22
2023-02-04T10:13:41.951Z,95336.03
2023-02-04T10:16:36.161Z,95326.84
2023-02-04T10:19:12.217Z,95344.91
2023-02-04T10:21:59.121Z,95344.97
2023-02-04T10:24:42.128Z,95342.09
2023-02-04T10:27:36.133Z,95355.03
2023-02-04T10:30:30.330Z,95350.88
2023-02-04T10:33:04.290Z,95356.00
2023-02-04T10:35:53.158Z,95365.16
2023-02-04T10:38:34.126Z,95372.16
2023-02-04T10:41:28.142Z,95370.78
2023-02-04T10:44:19.199Z,95385.06
2023-02-04T10:46:54.273Z,95388.34
2023-02-04T10:49:41.134Z,95379.44
2023-02-04T10:52:24.250Z,95386.41
2023-02-04T10:55:14.160Z,95381.09
2023-02-04T10:57:50.298Z,95398.25
2023-02-04T11:00:37.151Z,95400.66
2023-02-04T11:03:33.162Z,95417.03
2023-02-04T11:06:27.139Z,95418.50
2023-02-04T11:09:00.579Z,95406.75
2023-02-04T11:11:53.178Z,95424.03
2023-02-04T11:14:33.809Z,95423.66
2023-02-04T11:17:27.134Z,95425.13
2023-02-04T11:20:00.831Z,95428.25
2023-02-04T11:22:56.149Z,95425.09
2023-02-04T11:25:43.595Z,95427.75
2023-02-04T11:28:33.154Z,95440.59
2023-02-04T11:31:15.237Z,95440.53
2023-02-04T11:34:26.211Z,95441.38
2023-02-04T11:37:22.140Z,95459.25
2023-02-04T11:40:05.174Z,95461.44
2023-02-04T11:42:59.152Z,95456.22
2023-02-04T11:45:54.180Z,95466.00
2023-02-04T11:48:43.177Z,95457.69
2023-02-04T11:51:22.263Z,95479.53
2023-02-04T11:54:09.155Z,95484.00
2023-02-04T11:56:42.248Z,95477.97
2023-02-04T11:59:29.157Z,95480.38
2023-02-04T12:02:24.372Z,95494.94
2023-02-04T12:05:25.198Z,95478.31
2023-02-04T12:08:05.201Z,95474.22
2023-02-04T12:11:03.195Z,95464.94
2023-02-04T12:14:06.181Z,95472.34
2023-02-04T12:17:04.182Z,95479.91
2023-02-04T12:19:51.185Z,95487.41
2023-02-04T12:22:24.278Z,95492.06
2023-02-04T12:25:11.176Z,95483.94
2023-02-04T12:27:51.294Z,95494.72
2023-02-04T12:30:45.227Z,95490.72
2023-02-04T12:33:32.177Z,95497.28
2023-02-04T12:36:12.173Z,95499.63
2023-02-04T12:39:06.179Z,95507.16
2023-02-04T12:42:00.169Z,95506.88
2023-02-04T12:44:47.181Z,95517.25
2023-02-04T12:47:20.277Z,95524.78
2023-02-04T12:50:07.188Z,95529.22
2023-02-04T12:52:41.326Z,95533.38
2023-02-04T12:55:29.313Z,95544.94
2023-02-04T12:58:02.302Z,95552.53
2023-02-04T13:00:49.234Z,95549.34
2023-02-04T13:03:23.748Z,95552.19
2023-02-04T13:06:10.318Z,95560.31
2023-02-04T13:08:43.276Z,95553.41
2023-02-04T13:11:30.174Z,95561.00
2023-02-04T13:14:03.290Z,95558.56
2023-02-04T13:16:50.185Z,95565.59
2023-02-04T13:19:23.346Z,95568.94
2023-02-04T13:22:10.225Z,95587.25
2023-02-04T13:24:50.177Z,95592.47
2023-02-04T13:27:44.193Z,95598.84
2023-02-04T13:30:31.201Z,95590.81
2023-02-04T13:33:04.312Z,95589.19
2023-02-04T13:35:52.208Z,95597.31
2023-02-04T13:38:26.011Z,95597.13
2023-02-04T13:41:13.169Z,95596.53
2023-02-04T13:43:53.201Z,95607.81
2023-02-04T13:46:47.196Z,95606.25
2023-02-04T13:49:34.212Z,95601.03
2023-02-04T13:52:14.184Z,95611.25
2023-02-04T13:55:01.231Z,95620.00
2023-02-04T13:57:34.453Z,95626.13
2023-02-04T14:00:21.192Z,95633.91
2023-02-04T14:02:56.312Z,95635.69
2023-02-04T14:05:43.217Z,95643.47
2023-02-04T14:08:23.224Z,95650.69
2023-02-04T14:11:17.189Z,95656.13
2023-02-04T14:14:04.196Z,95666.84
2023-02-04T14:16:38.059Z,95662.75
2023-02-04T14:19:26.205Z,95677.91
2023-02-04T14:22:06.230Z,95682.78
2023-02-04T14:25:00.217Z,95684.44
2023-02-04T14:27:54.296Z,95681.94
2023-02-04T14:30:48.245Z,95694.09
2023-02-04T14:33:35.193Z,95692.41
2023-02-04T14:36:08.310Z,95697.00
2023-02-04T14:38:55.204Z,95713.88
2023-02-04T14:41:30.144Z,95706.84
2023-02-04T14:44:17.208Z,95716.22
2023-02-04T14:46:50.454Z,95723.72
2023-02-04T14:49:38.221Z,95713.28
2023-02-04T14:52:19.207Z,95722.94
2023-02-04T14:55:06.225Z,95741.81
2023-02-04T14:57:42.307Z,95732.44
2023-02-04T15:00:29.218Z,95736.63
2023-02-04T15:03:09.230Z,95747.66
2023-02-04T15:05:56.214Z,95747.72
2023-02-04T15:08:36.233Z,95759.06
2023-02-04T15:11:30.215Z,95756.06
2023-02-04T15:14:17.222Z,95756.28
2023-02-04T15:16:50.460Z,95769.75
2023-02-04T15:19:41.239Z,95773.13
2023-02-04T15:22:14.327Z,95772.63
2023-02-04T15:25:01.308Z,95781.69
2023-02-04T15:27:41.276Z,95772.31
2023-02-04T15:30:35.777Z,95784.28
2023-02-04T15:33:23.279Z,95789.75
2023-02-04T15:36:03.268Z,95775.47
2023-02-04T15:38:50.236Z,95790.25
2023-02-04T15:41:30.231Z,95793.75
2023-02-04T15:44:24.231Z,95796.09
2023-02-04T15:47:18.221Z,95808.59
2023-02-04T15:50:05.242Z,95810.53
2023-02-04T15:52:38.360Z,95800.38
2023-02-04T15:55:25.234Z,95810.91
2023-02-04T15:57:58.345Z,95815.88
2023-02-04T16:00:46.257Z,95816.22
2023-02-04T16:03:19.333Z,95824.66
2023-02-04T16:06:06.237Z,95823.72
2023-02-04T16:08:46.230Z,95832.72
2023-02-04T16:11:40.243Z,95831.56
2023-02-04T16:14:27.251Z,95826.09
2023-02-04T16:17:03.840Z,95841.13
2023-02-04T16:19:50.245Z,95837.66
2023-02-04T16:22:30.253Z,95834.81
2023-02-04T16:25:24.280Z,95832.31
2023-02-04T16:28:11.355Z,95837.72
2023-02-04T16:30:44.405Z,95832.50
2023-02-04T16:33:33.244Z,95834.81
2023-02-04T16:36:17.084Z,95831.56
2023-02-04T16:39:12.267Z,95833.84
2023-02-04T16:42:02.292Z,95848.41
2023-02-04T16:44:56.242Z,95850.47
2023-02-04T16:47:43.255Z,95852.16
2023-02-04T16:50:17.371Z,95852.16
2023-02-04T16:53:04.264Z,95852.31
2023-02-04T16:55:39.868Z,95848.94
2023-02-04T16:58:26.257Z,95841.63
2023-02-04T17:01:06.248Z,95850.22
2023-02-04T17:03:53.354Z,95859.34
2023-02-04T17:06:33.256Z,95884.13
2023-02-04T17:09:21.272Z,95862.78
2023-02-04T17:12:01.275Z,95862.06
2023-02-04T17:14:48.257Z,95877.31
2023-02-04T17:17:21.355Z,95872.53
2023-02-04T17:20:08.276Z,95862.16
2023-02-04T17:22:48.256Z,95871.13
2023-02-04T17:25:35.403Z,95870.38
2023-02-04T17:28:08.418Z,95872.16
2023-02-04T17:30:55.324Z,95863.91
2023-02-04T17:33:35.254Z,95873.91
2023-02-04T17:36:29.361Z,95864.75
2023-02-04T17:39:23.259Z,95862.31
2023-02-04T17:42:17.251Z,95862.16
2023-02-04T17:45:11.256Z,95873.25
2023-02-04T17:47:58.255Z,95869.91
2023-02-04T17:50:33.934Z,95884.09
2023-02-04T17:53:20.278Z,95883.56
2023-02-04T17:55:53.384Z,95884.28
2023-02-04T17:58:42.310Z,95889.97
2023-02-04T18:01:30.382Z,95893.84
2023-02-04T18:04:27.281Z,95899.88
2023-02-04T18:07:16.305Z,95899.19
2023-02-04T18:09:49.392Z,95902.38
2023-02-04T18:12:36.279Z,95905.59
2023-02-04T18:15:12.385Z,95910.59
2023-02-04T18:18:22.288Z,95906.22
2023-02-04T18:21:09.373Z,95907.91
2023-02-04T18:24:17.334Z,95896.81
2023-02-04T18:27:06.283Z,95908.47
2023-02-04T18:30:08.292Z,95916.66
2023-02-04T18:33:02.258Z,95916.66
2023-02-04T18:35:59.304Z,95913.38
2023-02-04T18:38:46.271Z,95930.88
2023-02-04T18:41:26.542Z,95919.31
2023-02-04T18:44:30.298Z,95909.50
2023-02-04T18:47:03.442Z,95919.50
2023-02-04T18:49:50.270Z,95913.56
2023-02-04T18:52:28.529Z,95917.00
2023-02-04T18:55:30.294Z,95915.16
2023-02-04T18:58:04.499Z,95915.16
2023-02-04T19:00:56.309Z,95919.56
2023-02-04T19:03:42.133Z,95911.19
2023-02-04T19:06:39.275Z,95910.97
2023-02-04T19:09:18.414Z,95905.03
2023-02-04T19:12:15.629Z,95912.91
2023-02-04T19:14:58.310Z,95921.09
2023-02-04T19:17:45.291Z,95924.41
2023-02-04T19:20:29.705Z,95912.00
2023-02-04T19:23:24.304Z,95923.69
2023-02-04T19:25:59.414Z,95925.09
2023-02-04T19:28:46.295Z,95915.03
2023-02-04T19:31:22.431Z,95919.22
2023-02-04T19:34:30.309Z,95925.00
2023-02-04T19:37:03.430Z,95946.47
2023-02-04T19:39:50.314Z,95942.13
2023-02-04T19:42:42.298Z,95962.63
2023-02-04T19:45:39.327Z,95968.31
2023-02-04T19:48:35.346Z,95982.06
2023-02-04T19:51:38.291Z,95979.66
2023-02-04T19:54:35.304Z,95974.84
2023-02-04T19:57:31.306Z,95976.47
2023-02-04T20:00:14.315Z,95993.94
2023-02-04T20:03:01.310Z,95990.25
2023-02-04T20:05:45.381Z,95978.31
2023-02-04T20:08:41.330Z,95993.69
2023-02-04T20:11:41.691Z,95994.66
2023-02-04T20:14:34.313Z,95993.34
2023-02-04T20:17:09.447Z,96001.78
2023-02-04T20:19:56.333Z,95993.00
2023-02-04T20:22:52.334Z,96000.50
2023-02-04T20:25:52.329Z,96004.72
2023-02-04T20:28:43.321Z,96014.69
2023-02-04T20:31:34.626Z,96008.81
2023-02-04T20:34:29.324Z,96007.28
2023-02-04T20:37:02.499Z,96004.72
2023-02-04T20:40:04.396Z,96003.66
2023-02-04T20:43:03.323Z,96002.13
2023-02-04T20:46:02.381Z,96008.16
2023-02-04T20:48:48.301Z,96016.66
2023-02-04T20:51:42.331Z,96019.25
2023-02-04T20:54:36.314Z,96025.69
2023-02-04T20:57:27.348Z,96031.03
2023-02-04T21:00:00.475Z,96028.03
2023-02-04T21:02:48.307Z,96030.00
2023-02-04T21:05:30.549Z,96039.22
2023-02-04T21:08:32.320Z,96035.94
2023-02-04T21:11:06.490Z,96035.88
2023-02-04T21:13:53.331Z,96038.44
2023-02-04T21:16:27.444Z,96038.19
2023-02-04T21:19:14.339Z,96032.94
2023-02-04T21:21:48.826Z,96038.69
2023-02-04T21:24:38.342Z,96031.81
2023-02-04T21:27:20.523Z,96039.56
2023-02-04T21:30:14.306Z,96033.53
2023-02-04T21:33:04.340Z,96038.69
2023-02-04T21:35:37.474Z,96042.06
2023-02-04T21:38:24.344Z,96056.25
2023-02-04T21:40:57.541Z,96044.53
2023-02-04T21:43:51.356Z,96058.66
2023-02-04T21:46:39.421Z,96052.72
2023-02-04T21:49:19.327Z,96055.38
2023-02-04T21:52:06.384Z,96067.69
2023-02-04T21:54:39.452Z,96064.25
2023-02-04T21:57:26.364Z,96054.94
2023-02-04T21:59:59.450Z,96066.06
2023-02-04T22:02:46.335Z,96071.31
2023-02-04T22:05:21.375Z,96076.66
2023-02-04T22:08:08.327Z,96080.19
2023-02-04T22:10:48.351Z,96071.47
2023-02-04T22:13:57.336Z,96080.69
2023-02-04T22:16:37.560Z,96080.88
2023-02-04T22:19:32.429Z,96077.41
2023-02-04T22:22:19.333Z,96082.66
2023-02-04T22:24:59.367Z,96092.66
2023-02-04T22:27:53.577Z,96083.19
2023-02-04T22:30:47.380Z,96082.25
2023-02-04T22:33:41.382Z,96096.34
2023-02-04T22:36:35.452Z,96085.59
2023-02-04T22:39:29.356Z,96084.22
2023-02-04T22:42:16.390Z,96098.53
2023-02-04T22:44:56.379Z,96099.28
2023-02-04T22:47:51.347Z,96096.88
2023-02-04T22:50:38.429Z,96104.53
2023-02-04T22:53:11.463Z,96108.94
2023-02-04T22:55:58.366Z,96104.81
2023-02-04T22:58:31.601Z,96108.09
2023-02-04T23:01:18.362Z,96114.78
2023-02-04T23:03:53.339Z,96121.25
2023-02-04T23:06:41.465Z,96120.78
2023-02-04T23:09:14.581Z,96112.19
2023-02-04T23:12:03.452Z,96117.53
2023-02-04T23:14:39.329Z,96126.84
2023-02-04T23:17:26.387Z,96124.84
2023-02-04T23:20:06.372Z,96123.13
2023-02-04T23:23:01.362Z,96120.63
2023-02-04T23:25:48.358Z,96138.09
2023-02-04T23:28:29.443Z,96136.56
2023-02-04T23:31:23.497Z,96142.41
2023-02-04T23:34:10.371Z,96152.38
2023-02-04T23:36:45.676Z,96152.28
2023-02-04T23:39:32.363Z,96149.19
2023-02-04T23:42:05.551Z,96157.53
2023-02-04T23:44:59.450Z,96154.78
2023-02-04T23:47:53.473Z,96172.19
2023-02-04T23:50:40.379Z,96170.72
2023-02-04T23:53:20.401Z,96172.25
2023-02-04T23:56:10.375Z,96176.91
2023-02-04T23:58:50.426Z,96169.22
